Time;durP1;ratioP1;P1;durP2;ratioP2;P2;SDS_P1;SDS_P2;PMS_P1;PMS_P2;Temp;Humidity;BMP_temperature;BMP_pressure;BME280_temperature;BME280_humidity;BME280_pressure;Samples;Min_cycle;Max_cycle;Signal;HPM_P1;HPM_P2
2023/03/16 00:02:12;;;;;;;7.65;2.55;;;-1.60;99.90;;;;;;5029093;28;20033;-62
2023/03/16 00:04:37;;;;;;;6.47;2.75;;;-1.60;99.90;;;;;;5030804;28;20063;-61
2023/03/16 00:07:05;;;;;;;5.97;2.45;;;-1.60;99.90;;;;;;5036018;28;20033;-62
2023/03/16 00:09:30;;;;;;;7.32;2.95;;;-1.70;99.90;;;;;;5030618;28;20045;-62
2023/03/16 00:11:57;;;;;;;5.32;2.28;;;-1.70;99.90;;;;;;5046728;28;20043;-62
2023/03/16 00:14:23;;;;;;;9.43;2.78;;;-1.70;99.90;;;;;;5036825;28;20049;-62
2023/03/16 00:16:49;;;;;;;5.15;2.35;;;-1.70;99.90;;;;;;5033019;28;20421;-61
2023/03/16 00:19:14;;;;;;;5.97;2.70;;;-1.70;99.90;;;;;;5027661;28;20112;-63
2023/03/16 00:21:40;;;;;;;7.25;2.60;;;-1.70;99.90;;;;;;5035627;28;20040;-63
2023/03/16 00:24:05;;;;;;;7.88;2.95;;;-1.80;99.90;;;;;;5028714;28;20032;-62
2023/03/16 00:26:31;;;;;;;7.07;2.75;;;-1.80;99.90;;;;;;5043460;28;20559;-62
2023/03/16 00:28:56;;;;;;;6.50;3.00;;;-1.80;99.90;;;;;;5029899;28;20059;-61
2023/03/16 00:31:23;;;;;;;4.65;2.50;;;-1.90;99.90;;;;;;5038333;28;20060;-62
2023/03/16 00:33:49;;;;;;;8.15;2.78;;;-1.90;99.90;;;;;;5026929;28;20052;-61
2023/03/16 00:36:15;;;;;;;9.32;3.30;;;-1.90;99.90;;;;;;5047839;28;20481;-62
2023/03/16 00:38:45;;;;;;;4.55;2.20;;;-1.90;99.90;;;;;;5026018;28;20034;-62
2023/03/16 00:41:14;;;;;;;5.53;2.75;;;-1.90;99.90;;;;;;5048333;28;20752;-62
2023/03/16 00:43:43;;;;;;;10.68;2.83;;;-1.90;99.90;;;;;;5025766;28;20036;-62
2023/03/16 00:46:14;;;;;;;4.70;2.05;;;-1.90;99.90;;;;;;5029413;28;20061;-62
2023/03/16 00:48:42;;;;;;;5.93;2.45;;;-2.00;99.90;;;;;;5019638;28;20042;-64
2023/03/16 00:51:14;;;;;;;4.40;2.40;;;-2.00;99.90;;;;;;5028681;28;20036;-62
2023/03/16 00:53:42;;;;;;;6.60;3.03;;;-2.00;99.90;;;;;;5020592;28;20051;-62
2023/03/16 00:56:08;;;;;;;3.60;1.92;;;-2.00;99.90;;;;;;5047174;28;20036;-62
2023/03/16 00:58:37;;;;;;;6.20;2.47;;;-2.00;99.90;;;;;;5026862;28;20056;-62
2023/03/16 01:01:09;;;;;;;10.73;2.75;;;-2.00;99.90;;;;;;5047637;28;20119;-62
2023/03/16 01:03:35;;;;;;;3.78;2.08;;;-2.10;99.90;;;;;;5026386;28;20037;-62
2023/03/16 01:06:12;;;;;;;5.30;2.58;;;-2.10;99.90;;;;;;5044089;28;20051;-62
2023/03/16 01:08:38;;;;;;;6.97;3.10;;;-2.10;99.90;;;;;;5026844;28;20113;-61
2023/03/16 01:11:10;;;;;;;8.18;2.80;;;-2.10;99.90;;;;;;5049843;28;20596;-62
2023/03/16 01:13:37;;;;;;;5.40;2.70;;;-2.10;99.90;;;;;;5027424;28;20053;-62
2023/03/16 01:16:04;;;;;;;9.65;2.35;;;-2.10;99.90;;;;;;5049625;28;20048;-62
2023/03/16 01:18:33;;;;;;;4.82;2.83;;;-2.10;99.90;;;;;;5028707;28;20036;-62
2023/03/16 01:21:00;;;;;;;5.18;2.58;;;-2.10;99.90;;;;;;5049865;28;20025;-61
2023/03/16 01:23:29;;;;;;;7.13;2.60;;;-2.10;99.90;;;;;;5027593;28;20651;-62
2023/03/16 01:25:54;;;;;;;6.40;3.03;;;-2.10;99.90;;;;;;5049688;28;20068;-62
2023/03/16 01:28:23;;;;;;;9.07;3.50;;;-2.20;99.90;;;;;;5025615;28;20502;-62
2023/03/16 01:30:52;;;;;;;8.18;2.70;;;-2.20;99.90;;;;;;5044325;28;20505;-61
2023/03/16 01:33:19;;;;;;;4.05;2.10;;;-2.20;99.90;;;;;;5041255;28;20033;-62
2023/03/16 01:35:52;;;;;;;3.60;2.00;;;-2.10;99.90;;;;;;5029674;28;20037;-62
2023/03/16 01:38:18;;;;;;;6.93;2.47;;;-2.20;99.90;;;;;;5021044;28;20132;-62
2023/03/16 01:40:43;;;;;;;7.97;2.95;;;-2.10;99.90;;;;;;5048475;28;20108;-62
2023/03/16 01:43:10;;;;;;;5.47;2.33;;;-2.10;99.90;;;;;;5027977;28;20104;-62
2023/03/16 01:46:13;;;;;;;6.00;2.20;;;-2.20;99.90;;;;;;5048968;28;20037;-62
2023/03/16 01:48:41;;;;;;;5.53;2.00;;;-2.20;99.90;;;;;;5024097;28;20116;-62
2023/03/16 01:51:12;;;;;;;7.53;2.55;;;-2.20;99.90;;;;;;5048587;28;20402;-62
2023/03/16 01:53:43;;;;;;;5.85;2.45;;;-2.20;99.90;;;;;;5024089;28;20132;-62
2023/03/16 01:56:12;;;;;;;3.50;1.65;;;-2.20;99.90;;;;;;5009356;28;20129;-62
2023/03/16 01:58:38;;;;;;;5.93;2.05;;;-2.30;99.90;;;;;;5031172;28;20025;-62
2023/03/16 02:01:04;;;;;;;6.22;2.20;;;-2.30;99.90;;;;;;5048451;28;20439;-62
2023/03/16 02:03:33;;;;;;;6.85;1.98;;;-2.30;99.90;;;;;;5027884;28;20025;-62
2023/03/16 02:06:08;;;;;;;6.25;2.17;;;-2.30;99.90;;;;;;5042447;28;20029;-62
2023/03/16 02:08:36;;;;;;;3.45;1.70;;;-2.30;99.90;;;;;;5023073;28;20038;-63
2023/03/16 02:11:03;;;;;;;5.50;2.53;;;-2.30;99.90;;;;;;5048689;28;20036;-62
2023/03/16 02:13:32;;;;;;;5.20;2.10;;;-2.30;99.90;;;;;;5027517;28;20052;-63
2023/03/16 02:15:58;;;;;;;3.97;2.40;;;-2.30;99.90;;;;;;5048849;28;20029;-61
2023/03/16 02:18:24;;;;;;;5.30;2.35;;;-2.30;99.90;;;;;;5027813;28;20079;-62
2023/03/16 02:20:57;;;;;;;3.95;2.03;;;-2.30;99.90;;;;;;5048099;28;20068;-61
2023/03/16 02:23:24;;;;;;;6.00;2.17;;;-2.40;99.90;;;;;;5021506;28;20048;-62
2023/03/16 02:25:53;;;;;;;3.78;1.77;;;-2.40;99.90;;;;;;5048064;28;20029;-61
2023/03/16 02:29:10;;;;;;;4.63;1.92;;;-2.40;99.90;;;;;;5027141;28;20026;-63
2023/03/16 02:31:36;;;;;;;3.57;2.00;;;-2.40;99.90;;;;;;4967291;28;20457;-62
2023/03/16 02:34:03;;;;;;;6.63;2.40;;;-2.40;99.90;;;;;;5020520;28;20276;-62
2023/03/16 02:36:29;;;;;;;8.90;2.17;;;-2.40;99.90;;;;;;5047984;28;20025;-62
2023/03/16 02:38:55;;;;;;;5.15;1.73;;;-2.40;99.90;;;;;;5027434;28;20025;-62
2023/03/16 02:41:20;;;;;;;6.80;1.63;;;-2.50;99.90;;;;;;5048034;28;20029;-62
2023/03/16 02:43:52;;;;;;;4.05;1.85;;;-2.50;99.90;;;;;;5027218;28;20037;-62
2023/03/16 02:46:21;;;;;;;6.22;2.20;;;-2.50;99.90;;;;;;5009104;28;20101;-63
2023/03/16 02:49:10;;;;;;;4.88;2.15;;;-2.50;99.90;;;;;;5028845;28;20681;-62
2023/03/16 02:51:35;;;;;;;2.97;1.73;;;-2.60;99.90;;;;;;5009045;28;20044;-62
2023/03/16 02:54:01;;;;;;;5.57;2.30;;;-2.60;99.90;;;;;;5024848;28;20116;-62
2023/03/16 02:56:26;;;;;;;5.03;2.25;;;-2.60;99.90;;;;;;5046209;28;20033;-62
2023/03/16 02:58:52;;;;;;;5.40;1.70;;;-2.60;99.90;;;;;;5027160;28;20030;-62
2023/03/16 03:01:17;;;;;;;5.63;1.95;;;-2.60;99.90;;;;;;5047735;28;20041;-63
2023/03/16 03:03:43;;;;;;;4.13;1.83;;;-2.60;99.90;;;;;;5027128;28;20068;-62
2023/03/16 03:06:09;;;;;;;8.18;2.38;;;-2.70;99.90;;;;;;5044125;28;20040;-62
2023/03/16 03:08:35;;;;;;;3.75;1.90;;;-2.70;99.90;;;;;;5026829;28;20026;-62
2023/03/16 03:11:01;;;;;;;4.70;2.00;;;-2.70;99.90;;;;;;5047417;28;20048;-62
2023/03/16 03:13:26;;;;;;;4.50;2.10;;;-2.70;99.90;;;;;;5026698;28;20064;-62
2023/03/16 03:15:52;;;;;;;4.25;1.88;;;-2.70;99.90;;;;;;5047249;28;20039;-61
2023/03/16 03:18:17;;;;;;;5.78;2.17;;;-2.70;99.90;;;;;;5026984;28;20448;-62
2023/03/16 03:20:43;;;;;;;5.75;2.10;;;-2.70;99.90;;;;;;5047382;28;20060;-62
2023/03/16 03:23:09;;;;;;;7.20;2.70;;;-2.80;99.90;;;;;;5024838;28;20045;-62
2023/03/16 03:25:34;;;;;;;5.18;1.83;;;-2.80;99.90;;;;;;5027963;28;20460;-62
2023/03/16 03:28:01;;;;;;;10.77;2.28;;;-2.80;99.90;;;;;;5027409;28;20026;-62
2023/03/16 03:30:27;;;;;;;3.40;1.77;;;-2.80;99.90;;;;;;5045297;28;20106;-62
2023/03/16 03:32:53;;;;;;;3.22;1.70;;;-2.80;99.90;;;;;;5026380;28;20521;-61
2023/03/16 03:35:18;;;;;;;5.25;2.15;;;-2.90;99.90;;;;;;5045941;28;20120;-62
2023/03/16 03:37:44;;;;;;;6.75;1.98;;;-2.80;99.90;;;;;;5026666;28;20087;-62
2023/03/16 03:40:12;;;;;;;3.30;1.85;;;-2.90;99.90;;;;;;5046936;28;20037;-62
2023/03/16 03:42:38;;;;;;;7.07;2.30;;;-2.80;99.90;;;;;;5026296;28;20060;-62
2023/03/16 03:45:05;;;;;;;5.47;1.90;;;-2.90;99.90;;;;;;5045838;28;20456;-62
2023/03/16 03:47:30;;;;;;;3.15;1.40;;;-2.90;99.90;;;;;;5029746;28;20029;-62
2023/03/16 03:49:55;;;;;;;7.32;1.80;;;-2.90;99.90;;;;;;5051034;28;20043;-61
2023/03/16 03:52:21;;;;;;;3.42;1.48;;;-2.90;99.90;;;;;;5030561;28;20041;-62
2023/03/16 03:54:46;;;;;;;8.13;2.30;;;-2.90;99.90;;;;;;5050530;28;20037;-62
2023/03/16 03:57:12;;;;;;;8.20;2.10;;;-2.90;99.90;;;;;;5030436;28;20045;-62
2023/03/16 03:59:42;;;;;;;3.85;1.50;;;-2.90;99.90;;;;;;5050884;28;20397;-62
2023/03/16 04:02:09;;;;;;;3.22;1.60;;;-2.90;99.90;;;;;;5040040;28;20116;-62
2023/03/16 04:04:35;;;;;;;3.85;2.03;;;-3.00;99.90;;;;;;5032373;28;20033;-61
2023/03/16 04:07:01;;;;;;;4.30;2.95;;;-2.90;99.90;;;;;;5044310;28;20055;-61
2023/03/16 04:09:27;;;;;;;6.95;1.98;;;-3.00;99.90;;;;;;5051256;28;20041;-62
2023/03/16 04:11:52;;;;;;;4.97;2.05;;;-3.00;99.90;;;;;;5032212;28;20038;-62
2023/03/16 04:14:18;;;;;;;4.47;2.47;;;-3.00;99.90;;;;;;5049635;28;20040;-56
2023/03/16 04:16:43;;;;;;;5.10;2.30;;;-3.00;99.90;;;;;;5032002;28;20033;-54
2023/03/16 04:19:10;;;;;;;4.80;2.17;;;-3.00;99.90;;;;;;5029763;28;20037;-56
2023/03/16 04:21:37;;;;;;;6.00;2.47;;;-3.00;99.90;;;;;;5050552;28;20029;-56
2023/03/16 04:24:04;;;;;;;3.67;1.88;;;-3.10;99.90;;;;;;5029890;28;20045;-54
2023/03/16 04:26:30;;;;;;;4.18;1.75;;;-3.10;99.90;;;;;;5050534;28;20064;-56
2023/03/16 04:28:56;;;;;;;6.82;2.40;;;-3.10;99.90;;;;;;5029893;28;20121;-56
2023/03/16 04:31:22;;;;;;;8.05;3.33;;;-3.00;99.90;;;;;;5040889;28;20520;-56
2023/03/16 04:33:48;;;;;;;6.70;2.53;;;-3.00;99.90;;;;;;5032711;28;20025;-55
2023/03/16 04:36:13;;;;;;;5.85;2.70;;;-3.00;99.90;;;;;;5030882;28;20041;-56
2023/03/16 04:38:40;;;;;;;5.20;1.67;;;-3.00;99.90;;;;;;5050483;28;20045;-56
2023/03/16 04:41:06;;;;;;;3.40;1.60;;;-2.90;99.90;;;;;;5029505;28;20030;-56
2023/03/16 04:43:33;;;;;;;5.47;1.73;;;-3.00;99.90;;;;;;5050056;28;20025;-57
2023/03/16 04:46:00;;;;;;;5.25;2.35;;;-3.00;99.90;;;;;;5029497;28;20032;-58
2023/03/16 04:48:26;;;;;;;7.25;2.60;;;-3.00;99.90;;;;;;5030637;28;20033;-55
2023/03/16 04:50:52;;;;;;;3.72;2.58;;;-3.00;99.90;;;;;;5028772;28;20120;-57
2023/03/16 04:53:17;;;;;;;5.78;2.58;;;-3.10;99.90;;;;;;5030639;28;20107;-57
2023/03/16 04:55:44;;;;;;;9.10;3.33;;;-3.00;99.90;;;;;;5030129;28;20377;-54
2023/03/16 04:58:10;;;;;;;9.13;3.28;;;-3.10;99.90;;;;;;5048512;28;20087;-53
2023/03/16 05:00:35;;;;;;;6.82;2.55;;;-3.10;99.90;;;;;;5029397;28;20041;-57
2023/03/16 05:03:01;;;;;;;6.82;3.08;;;-3.10;99.90;;;;;;5049753;28;20082;-57
2023/03/16 05:05:27;;;;;;;4.38;2.38;;;-3.10;99.90;;;;;;5032618;28;20032;-56
2023/03/16 05:07:52;;;;;;;6.85;2.65;;;-3.10;99.90;;;;;;5048284;28;20033;-55
2023/03/16 05:10:18;;;;;;;8.68;2.75;;;-3.20;99.90;;;;;;5031093;28;20033;-55
2023/03/16 05:12:44;;;;;;;8.77;2.78;;;-3.20;99.90;;;;;;5046478;28;20024;-58
2023/03/16 05:15:09;;;;;;;11.30;2.70;;;-3.20;99.90;;;;;;5050370;28;20041;-59
2023/03/16 05:17:35;;;;;;;4.53;2.35;;;-3.20;99.90;;;;;;5034610;28;20112;-56
2023/03/16 05:20:12;;;;;;;3.50;1.60;;;-3.20;99.90;;;;;;5050177;28;20025;-56
2023/03/16 05:22:42;;;;;;;8.98;2.47;;;-3.20;99.90;;;;;;5034595;28;20032;-57
2023/03/16 05:25:13;;;;;;;4.57;2.08;;;-3.20;99.90;;;;;;5049975;28;20041;-56
2023/03/16 05:27:40;;;;;;;6.18;2.28;;;-3.10;99.90;;;;;;5020977;28;20033;-57
2023/03/16 05:30:07;;;;;;;5.15;2.55;;;-3.10;99.90;;;;;;5049645;28;20066;-56
2023/03/16 05:32:32;;;;;;;7.93;2.30;;;-3.00;99.90;;;;;;5033863;28;20504;-54
2023/03/16 05:34:58;;;;;;;4.20;1.92;;;-3.00;99.90;;;;;;5050146;28;20033;-58
2023/03/16 05:37:23;;;;;;;4.45;1.88;;;-3.00;99.90;;;;;;5034423;28;20101;-58
2023/03/16 05:39:49;;;;;;;7.90;2.20;;;-3.00;99.90;;;;;;5029534;28;20032;-56
2023/03/16 05:42:14;;;;;;;4.78;2.17;;;-2.90;99.90;;;;;;5043879;28;20539;-57
2023/03/16 05:44:40;;;;;;;4.38;1.70;;;-2.90;99.90;;;;;;5029963;28;20037;-56
2023/03/16 05:47:05;;;;;;;7.15;2.20;;;-2.80;99.90;;;;;;5046415;28;20543;-55
2023/03/16 05:49:31;;;;;;;7.00;2.08;;;-2.80;99.90;;;;;;5041306;28;20033;-56
2023/03/16 05:51:56;;;;;;;5.47;1.52;;;-2.70;99.90;;;;;;5028120;28;20025;-57
2023/03/16 05:54:22;;;;;;;5.10;1.58;;;-2.60;99.90;;;;;;5027157;28;20169;-56
2023/03/16 05:56:47;;;;;;;7.10;2.40;;;-2.50;99.90;;;;;;5045815;28;20078;-56
2023/03/16 05:59:13;;;;;;;5.85;2.30;;;-2.40;99.90;;;;;;5028962;28;20116;-55
2023/03/16 06:01:39;;;;;;;14.50;2.92;;;-2.30;99.90;;;;;;5044730;28;20029;-53
2023/03/16 06:04:04;;;;;;;3.80;1.75;;;-1.60;99.90;;;;;;5047302;28;20028;-55
2023/03/16 06:06:30;;;;;;;3.03;1.73;;;-0.70;99.90;;;;;;5028994;28;20045;-56
2023/03/16 06:08:55;;;;;;;4.70;2.00;;;0.30;99.90;;;;;;5028196;28;20487;-56
2023/03/16 06:11:21;;;;;;;4.93;2.08;;;1.30;99.90;;;;;;5048262;28;20795;-56
2023/03/16 06:13:46;;;;;;;6.95;3.10;;;2.30;99.90;;;;;;5029248;28;20040;-55
2023/03/16 06:16:13;;;;;;;4.38;2.40;;;3.10;99.90;;;;;;5048118;28;20028;-54
2023/03/16 06:18:40;;;;;;;5.30;2.03;;;3.80;96.40;;;;;;5027548;28;20457;-55
2023/03/16 06:21:05;;;;;;;4.45;2.10;;;4.50;89.90;;;;;;5046502;28;20685;-53
2023/03/16 06:23:32;;;;;;;7.70;2.20;;;5.10;78.60;;;;;;5026557;28;20029;-55
2023/03/16 06:25:59;;;;;;;7.97;2.25;;;5.60;82.40;;;;;;5047986;28;20078;-55
2023/03/16 06:28:24;;;;;;;3.60;1.98;;;6.20;78.00;;;;;;5028264;28;20101;-54
2023/03/16 06:30:55;;;;;;;6.75;2.72;;;6.80;73.60;;;;;;5040129;28;20132;-50
2023/03/16 06:33:20;;;;;;;6.70;2.33;;;7.40;76.50;;;;;;5027978;28;20025;-53
2023/03/16 06:35:47;;;;;;;7.30;1.95;;;8.00;73.90;;;;;;5026234;28;20389;-54
2023/03/16 06:38:12;;;;;;;3.38;1.88;;;8.50;69.20;;;;;;5047101;28;20512;-55
2023/03/16 06:40:40;;;;;;;6.30;2.00;;;9.10;66.30;;;;;;5026493;28;20065;-56
2023/03/16 06:43:05;;;;;;;2.67;1.77;;;9.70;67.70;;;;;;5032880;28;20112;-55
2023/03/16 06:45:31;;;;;;;5.57;1.90;;;10.10;64.50;;;;;;5046665;28;20584;-55
2023/03/16 06:47:56;;;;;;;3.67;2.28;;;10.60;61.20;;;;;;5036891;28;20039;-53
2023/03/16 06:50:22;;;;;;;4.57;1.73;;;11.00;59.30;;;;;;5027720;28;20042;-53
2023/03/16 06:52:47;;;;;;;3.72;1.83;;;11.30;56.00;;;;;;5044510;28;20439;-55
2023/03/16 06:55:13;;;;;;;4.03;1.92;;;11.90;56.30;;;;;;5027884;28;20030;-55
2023/03/16 06:57:40;;;;;;;3.95;2.00;;;12.20;52.60;;;;;;5044639;28;20021;-58
2023/03/16 07:00:07;;;;;;;3.17;1.60;;;12.60;50.80;;;;;;5027468;28;20036;-55
2023/03/16 07:02:34;;;;;;;3.58;1.80;;;12.90;47.40;;;;;;5044976;28;20032;-57
2023/03/16 07:05:00;;;;;;;3.88;1.90;;;13.40;49.00;;;;;;5039224;28;20048;-56
2023/03/16 07:07:26;;;;;;;3.90;1.92;;;13.70;43.80;;;;;;5031309;28;20037;-55
2023/03/16 07:09:51;;;;;;;4.50;2.10;;;13.80;42.80;;;;;;5047113;28;20048;-56
2023/03/16 07:12:17;;;;;;;4.80;1.80;;;13.90;36.00;;;;;;5031280;28;20036;-57
2023/03/16 07:14:43;;;;;;;4.43;1.90;;;14.10;37.80;;;;;;5046918;28;20275;-57
2023/03/16 07:17:08;;;;;;;3.08;1.63;;;14.10;37.00;;;;;;5029996;28;20033;-58
2023/03/16 07:19:34;;;;;;;4.47;1.80;;;14.10;34.50;;;;;;5046879;28;20393;-58
2023/03/16 07:22:01;;;;;;;4.57;1.73;;;14.00;38.70;;;;;;5029278;28;20378;-58
2023/03/16 07:24:27;;;;;;;2.58;1.70;;;14.00;40.10;;;;;;5051344;28;20024;-57
2023/03/16 07:26:52;;;;;;;3.67;2.10;;;14.00;38.70;;;;;;5031973;28;20034;-58
2023/03/16 07:29:18;;;;;;;3.92;1.92;;;14.10;35.10;;;;;;5051270;28;20021;-58
2023/03/16 07:31:44;;;;;;;3.33;2.40;;;14.10;36.00;;;;;;5030595;28;20041;-58
2023/03/16 07:34:09;;;;;;;4.65;2.33;;;14.10;34.30;;;;;;5051303;28;20032;-59
2023/03/16 07:36:34;;;;;;;4.38;2.30;;;14.10;36.10;;;;;;5029315;28;20037;-59
2023/03/16 07:39:00;;;;;;;4.57;2.40;;;14.10;34.50;;;;;;5051053;28;20135;-58
2023/03/16 07:41:26;;;;;;;5.47;2.40;;;14.00;32.60;;;;;;5040772;28;20412;-59
2023/03/16 07:43:52;;;;;;;3.97;2.22;;;13.90;34.20;;;;;;5032319;28;20104;-58
2023/03/16 07:46:17;;;;;;;3.92;1.85;;;13.80;33.30;;;;;;5049384;28;20112;-58
2023/03/16 07:48:44;;;;;;;4.00;2.20;;;13.90;33.30;;;;;;5031984;28;20451;-59
2023/03/16 07:51:10;;;;;;;2.88;1.80;;;13.80;33.70;;;;;;5048986;28;20568;-59
2023/03/16 07:53:36;;;;;;;3.47;2.10;;;13.70;34.20;;;;;;5032066;28;20034;-59
2023/03/16 07:56:02;;;;;;;4.75;2.40;;;13.70;33.80;;;;;;5048726;28;20317;-59
2023/03/16 07:58:27;;;;;;;3.72;2.10;;;13.60;32.10;;;;;;5051461;28;20028;-59
2023/03/16 08:00:57;;;;;;;3.90;1.98;;;13.50;32.20;;;;;;5036181;28;20041;-59
2023/03/16 08:03:27;;;;;;;4.97;2.30;;;13.50;25.80;;;;;;5051380;28;20262;-59
2023/03/16 08:05:53;;;;;;;4.28;2.45;;;13.50;28.00;;;;;;5033952;28;20100;-57
2023/03/16 08:08:20;;;;;;;3.80;1.65;;;13.50;30.60;;;;;;5051240;28;20025;-57
2023/03/16 08:10:51;;;;;;;5.88;2.03;;;13.40;31.50;;;;;;5034558;28;20028;-56
2023/03/16 08:13:17;;;;;;;4.15;2.10;;;13.40;27.20;;;;;;5051290;28;20385;-57
2023/03/16 08:15:47;;;;;;;3.47;1.80;;;13.40;28.90;;;;;;5034171;28;20036;-55
2023/03/16 08:18:12;;;;;;;4.07;1.85;;;13.30;27.80;;;;;;5051278;28;20166;-54
2023/03/16 08:20:38;;;;;;;3.65;1.80;;;13.30;29.90;;;;;;5033788;28;20076;-54
2023/03/16 08:23:03;;;;;;;6.20;1.80;;;13.10;28.60;;;;;;5050697;28;20032;-54
2023/03/16 08:25:29;;;;;;;5.60;2.17;;;13.00;27.50;;;;;;5032409;28;20571;-57
2023/03/16 08:27:56;;;;;;;3.03;1.60;;;13.00;27.70;;;;;;5051001;28;20029;-57
2023/03/16 08:30:22;;;;;;;4.72;1.70;;;12.90;26.90;;;;;;5030634;28;20033;-53
2023/03/16 08:32:49;;;;;;;3.65;1.65;;;12.80;26.10;;;;;;5050707;28;20017;-57
2023/03/16 08:35:15;;;;;;;4.32;1.90;;;12.80;26.60;;;;;;5030066;28;20061;-56
2023/03/16 08:37:41;;;;;;;3.72;1.70;;;12.90;27.40;;;;;;5050758;28;20017;-57
2023/03/16 08:40:18;;;;;;;3.97;1.60;;;12.90;25.40;;;;;;5030990;28;20037;-56
2023/03/16 08:42:43;;;;;;;4.18;1.63;;;12.90;25.10;;;;;;5010721;28;20033;-56
2023/03/16 08:45:09;;;;;;;5.15;1.70;;;13.00;24.70;;;;;;5047287;28;20086;-55
2023/03/16 08:47:36;;;;;;;4.35;1.30;;;13.10;24.70;;;;;;5049443;28;20029;-57
2023/03/16 08:50:04;;;;;;;4.30;1.73;;;13.10;23.80;;;;;;5030902;28;20037;-56
2023/03/16 08:52:30;;;;;;;4.00;1.50;;;13.20;23.40;;;;;;5029084;28;20025;-56
2023/03/16 08:54:56;;;;;;;3.08;1.48;;;13.20;22.00;;;;;;5049767;28;20029;-57
2023/03/16 08:57:22;;;;;;;4.10;1.58;;;13.10;21.10;;;;;;5029048;28;20033;-54
2023/03/16 08:59:47;;;;;;;2.88;1.40;;;13.10;19.60;;;;;;5049493;28;20048;-56
2023/03/16 09:02:13;;;;;;;3.92;1.15;;;13.10;20.20;;;;;;5029388;28;20033;-52
2023/03/16 09:04:39;;;;;;;2.17;1.67;;;13.20;18.90;;;;;;5041125;28;20025;-56
2023/03/16 09:07:05;;;;;;;3.90;1.35;;;13.20;18.50;;;;;;5028300;28;20024;-56
2023/03/16 09:09:32;;;;;;;2.63;1.40;;;13.20;18.00;;;;;;5049503;28;20032;-56
2023/03/16 09:11:58;;;;;;;3.85;1.50;;;13.20;16.50;;;;;;5028874;28;20034;-55
2023/03/16 09:14:24;;;;;;;3.15;1.50;;;13.30;16.70;;;;;;5048997;28;20037;-53
2023/03/16 09:16:51;;;;;;;3.13;1.52;;;13.30;15.60;;;;;;5028802;28;20191;-55
2023/03/16 09:19:16;;;;;;;2.70;1.48;;;13.30;15.20;;;;;;5049397;28;20362;-56
2023/03/16 09:21:43;;;;;;;3.63;1.30;;;13.20;14.90;;;;;;5028569;28;20037;-55
2023/03/16 09:24:09;;;;;;;4.05;1.42;;;13.20;14.40;;;;;;5049288;28;20503;-56
2023/03/16 09:26:36;;;;;;;3.03;1.60;;;13.20;13.90;;;;;;5028856;28;20033;-57
2023/03/16 09:29:02;;;;;;;3.03;1.15;;;13.20;13.30;;;;;;5049140;28;20060;-55
2023/03/16 09:31:27;;;;;;;3.25;1.70;;;13.20;12.20;;;;;;5038867;28;20140;-55
2023/03/16 09:33:53;;;;;;;4.25;1.30;;;13.20;13.00;;;;;;5030314;28;20506;-54
2023/03/16 09:36:19;;;;;;;3.83;1.65;;;13.30;13.10;;;;;;5047049;28;20029;-55
2023/03/16 09:38:44;;;;;;;3.10;1.50;;;13.30;12.10;;;;;;5029875;28;20021;-55
2023/03/16 09:41:30;;;;;;;4.07;1.45;;;13.30;11.90;;;;;;5046810;28;20492;-56
2023/03/16 09:44:09;;;;;;;4.40;1.40;;;13.30;9.90;;;;;;5028970;28;20482;-56
2023/03/16 09:46:42;;;;;;;5.28;1.60;;;13.40;9.60;;;;;;5031302;28;20275;-56
2023/03/16 09:49:11;;;;;;;2.67;1.38;;;13.40;11.60;;;;;;5009793;28;20514;-56
2023/03/16 09:51:51;;;;;;;3.53;1.50;;;13.40;10.90;;;;;;5035188;28;20601;-55
2023/03/16 09:54:25;;;;;;;2.30;1.10;;;13.40;9.10;;;;;;5009852;28;20022;-54
2023/03/16 09:56:53;;;;;;;3.35;1.50;;;13.50;9.90;;;;;;5021725;28;20386;-56
2023/03/16 09:59:21;;;;;;;4.65;1.20;;;13.40;9.70;;;;;;5048865;28;20415;-56
2023/03/16 10:02:08;;;;;;;3.95;1.33;;;13.40;10.30;;;;;;5027583;28;20298;-56
2023/03/16 10:05:01;;;;;;;3.95;1.58;;;13.40;9.30;;;;;;5009102;28;20037;-53
2023/03/16 10:07:40;;;;;;;6.40;1.60;;;13.50;8.20;;;;;;5028149;28;20116;-56
2023/03/16 10:10:28;;;;;;;4.25;1.30;;;13.40;8.70;;;;;;5009116;28;20116;-56
2023/03/16 10:12:57;;;;;;;3.33;1.50;;;13.50;6.80;;;;;;5009444;28;20038;-54
2023/03/16 10:15:27;;;;;;;2.28;1.20;;;13.50;8.10;;;;;;5046414;28;20029;-49
2023/03/16 10:18:05;;;;;;;4.15;1.40;;;13.40;6.70;;;;;;5048982;28;20493;-55
2023/03/16 10:20:33;;;;;;;2.28;1.00;;;13.30;6.20;;;;;;5030151;28;20028;-56
2023/03/16 10:23:08;;;;;;;2.95;1.13;;;13.20;6.80;;;;;;5048884;28;20029;-55
2023/03/16 10:25:46;;;;;;;4.47;1.40;;;13.10;7.00;;;;;;5013998;28;20028;-56
2023/03/16 10:28:20;;;;;;;2.83;1.10;;;13.10;6.00;;;;;;5048703;28;20626;-53
2023/03/16 10:30:48;;;;;;;3.65;1.08;;;13.00;6.30;;;;;;5016647;28;20086;-54
2023/03/16 10:33:26;;;;;;;2.55;0.90;;;12.90;5.40;;;;;;5048596;28;20025;-55
2023/03/16 10:36:04;;;;;;;3.28;1.30;;;12.70;4.70;;;;;;5032754;28;20056;-56
2023/03/16 10:38:41;;;;;;;2.30;1.13;;;12.50;4.70;;;;;;5047359;28;20025;-53
2023/03/16 10:41:30;;;;;;;1.40;0.90;;;12.40;4.50;;;;;;5034511;28;20064;-55
2023/03/16 10:44:20;;;;;;;2.95;1.00;;;12.20;4.30;;;;;;5008891;28;20231;-56
2023/03/16 10:46:56;;;;;;;3.97;0.90;;;12.10;4.40;;;;;;5032976;28;20025;-53
2023/03/16 10:49:25;;;;;;;2.83;0.98;;;11.80;4.30;;;;;;5008636;28;20120;-52
2023/03/16 10:51:53;;;;;;;3.13;1.08;;;11.60;4.90;;;;;;5032292;28;20037;-56
2023/03/16 10:54:29;;;;;;;2.63;0.82;;;11.50;5.20;;;;;;5047928;28;20028;-54
2023/03/16 10:56:55;;;;;;;1.65;0.93;;;11.40;5.90;;;;;;5021370;28;20025;-54
2023/03/16 10:59:33;;;;;;;3.42;0.93;;;11.20;6.20;;;;;;5047496;28;20151;-53
2023/03/16 11:02:14;;;;;;;3.45;0.95;;;11.20;5.20;;;;;;5021883;28;20375;-55
2023/03/16 11:04:40;;;;;;;3.95;1.08;;;11.00;5.80;;;;;;5010284;28;20494;-53
2023/03/16 11:07:10;;;;;;;3.55;1.15;;;10.90;5.90;;;;;;5030180;28;20028;-51
2023/03/16 11:09:36;;;;;;;4.43;1.17;;;10.70;5.90;;;;;;5048152;28;20497;-54
2023/03/16 11:12:23;;;;;;;4.30;1.00;;;10.60;6.00;;;;;;5026717;28;20033;-53
2023/03/16 11:14:48;;;;;;;2.28;1.23;;;10.60;5.20;;;;;;5047647;28;20040;-55
2023/03/16 11:17:19;;;;;;;1.90;1.00;;;10.50;5.80;;;;;;5026839;28;20030;-62
2023/03/16 11:20:06;;;;;;;5.40;1.10;;;10.40;6.90;;;;;;5008107;28;20127;-58
2023/03/16 11:22:32;;;;;;;1.58;0.90;;;10.40;6.80;;;;;;5024760;28;20036;-54
2023/03/16 11:25:04;;;;;;;3.17;1.08;;;10.30;6.40;;;;;;5047290;28;20207;-55
2023/03/16 11:27:55;;;;;;;1.80;0.80;;;10.30;7.10;;;;;;5026186;28;20021;-54
2023/03/16 11:30:39;;;;;;;4.45;1.67;;;10.30;7.20;;;;;;5009307;28;20096;-52
2023/03/16 11:33:14;;;;;;;1.80;0.85;;;10.30;7.00;;;;;;5047658;28;20144;-54
2023/03/16 11:35:49;;;;;;;2.60;1.00;;;10.30;6.50;;;;;;5030315;28;20029;-53
2023/03/16 11:38:33;;;;;;;2.15;1.30;;;10.20;6.70;;;;;;5047870;28;20040;-53
2023/03/16 11:41:09;;;;;;;4.15;1.23;;;10.20;7.30;;;;;;5032756;28;20021;-55
2023/03/16 11:43:35;;;;;;;;;;;10.10;7.20;;;;;;5028477;28;20116;-54
2023/03/16 11:46:09;;;;;;;3.50;0.80;;;10.10;6.00;;;;;;5045165;28;20003;-55
2023/03/16 11:49:23;;;;;;;2.97;0.90;;;10.00;6.50;;;;;;5028174;28;20057;-52
2023/03/16 11:52:16;;;;;;;1.98;0.70;;;9.90;4.80;;;;;;5033432;28;20033;-50
2023/03/16 11:54:47;;;;;;;2.42;0.60;;;9.90;5.40;;;;;;5008120;28;20026;-54
2023/03/16 11:57:41;;;;;;;2.20;0.90;;;9.80;5.90;;;;;;5042781;28;20082;-54
2023/03/16 12:00:23;;;;;;;2.40;0.73;;;9.80;4.40;;;;;;5046525;28;20041;-54
2023/03/16 12:02:52;;;;;;;1.90;0.70;;;9.80;5.80;;;;;;5047744;28;20031;-49
2023/03/16 12:05:44;;;;;;;3.40;1.40;;;9.70;6.90;;;;;;5030033;28;20081;-52
2023/03/16 12:08:23;;;;;;;1.95;1.05;;;9.70;6.90;;;;;;5048994;28;20083;-53
2023/03/16 12:11:03;;;;;;;2.63;1.05;;;9.70;6.00;;;;;;5020449;28;20509;-52
2023/03/16 12:13:55;;;;;;;3.08;0.90;;;9.80;6.60;;;;;;5051366;28;20109;-53
2023/03/16 12:16:31;;;;;;;3.05;0.73;;;9.70;6.50;;;;;;5029164;28;20515;-57
2023/03/16 12:19:10;;;;;;;2.08;0.70;;;9.70;6.20;;;;;;5011497;28;20108;-58
2023/03/16 12:21:43;;;;;;;2.72;0.55;;;9.70;5.90;;;;;;5033228;28;20033;-57
2023/03/16 12:24:25;;;;;;;2.28;0.73;;;9.60;6.20;;;;;;5030922;28;20033;-58
2023/03/16 12:26:52;;;;;;;1.63;0.70;;;9.60;6.20;;;;;;5023456;28;20092;-57
2023/03/16 12:29:34;;;;;;;3.28;0.75;;;9.60;5.60;;;;;;5050396;28;20271;-57
2023/03/16 12:32:03;;;;;;;1.92;0.60;;;9.50;6.80;;;;;;5027788;28;20049;-57
2023/03/16 12:34:52;;;;;;;5.97;1.50;;;9.50;6.30;;;;;;5050125;28;20480;-57
2023/03/16 12:37:38;;;;;;;3.67;0.90;;;9.60;6.40;;;;;;5029096;28;20452;-58
2023/03/16 12:40:10;;;;;;;;;;;9.60;6.10;;;;;;5011289;28;20034;-57
2023/03/16 12:42:39;;;;;;;2.55;0.70;;;9.70;5.80;;;;;;5011154;28;20017;-57
2023/03/16 12:45:26;;;;;;;1.85;0.73;;;9.60;3.60;;;;;;5047807;28;20036;-58
2023/03/16 12:48:17;;;;;;;2.88;0.70;;;9.60;3.40;;;;;;5050672;28;20063;-57
2023/03/16 12:50:51;;;;;;;1.75;0.60;;;9.50;1.00;;;;;;5033088;28;20161;-58
2023/03/16 12:53:43;;;;;;;1.33;0.63;;;9.50;1.20;;;;;;5050706;28;20032;-57
2023/03/16 12:56:26;;;;;;;2.58;0.60;;;9.40;1.00;;;;;;5036984;28;20021;-58
2023/03/16 12:58:55;;;;;;;1.67;0.60;;;9.40;1.00;;;;;;5010748;28;20022;-57
2023/03/16 13:01:30;;;;;;;3.78;1.00;;;9.30;1.00;;;;;;5047822;28;20060;-57
2023/03/16 13:04:26;;;;;;;1.38;0.73;;;9.30;1.00;;;;;;5010659;28;20112;-58